sensor_id;sensor_type;location;lat;lon;timestamp;pressure;altitude;pressure_sealevel;temperature;humidity
20630;BME280;17386;43.846;25.950;2022-07-23T00:01:27;101149.44;;;26.93;49.47
20630;BME280;17386;43.846;25.950;2022-07-23T00:03:54;101155.03;;;26.92;48.61
20630;BME280;17386;43.846;25.950;2022-07-23T00:06:20;101150.03;;;26.87;48.49
20630;BME280;17386;43.846;25.950;2022-07-23T00:08:46;101159.91;;;26.88;48.75
20630;BME280;17386;43.846;25.950;2022-07-23T00:11:11;101168.56;;;26.84;49.42
20630;BME280;17386;43.846;25.950;2022-07-23T00:13:37;101165.13;;;26.82;50.86
20630;BME280;17386;43.846;25.950;2022-07-23T00:16:03;101165.28;;;26.80;52.24
20630;BME280;17386;43.846;25.950;2022-07-23T00:18:28;101169.28;;;26.76;52.47
20630;BME280;17386;43.846;25.950;2022-07-23T00:20:54;101168.47;;;26.66;52.99
20630;BME280;17386;43.846;25.950;2022-07-23T00:23:19;101155.28;;;26.61;52.96
20630;BME280;17386;43.846;25.950;2022-07-23T00:25:45;101163.06;;;26.56;52.54
20630;BME280;17386;43.846;25.950;2022-07-23T00:28:11;101155.50;;;26.50;52.79
20630;BME280;17386;43.846;25.950;2022-07-23T00:30:36;101152.19;;;26.47;52.48
20630;BME280;17386;43.846;25.950;2022-07-23T00:33:06;101156.63;;;26.48;52.16
20630;BME280;17386;43.846;25.950;2022-07-23T00:35:36;101153.91;;;26.48;52.00
20630;BME280;17386;43.846;25.950;2022-07-23T00:38:03;101145.44;;;26.51;50.98
20630;BME280;17386;43.846;25.950;2022-07-23T00:40:30;101146.31;;;26.51;50.56
20630;BME280;17386;43.846;25.950;2022-07-23T00:42:56;101138.56;;;26.47;50.14
20630;BME280;17386;43.846;25.950;2022-07-23T00:45:21;101135.84;;;26.47;49.36
20630;BME280;17386;43.846;25.950;2022-07-23T00:47:47;101138.72;;;26.45;48.02
20630;BME280;17386;43.846;25.950;2022-07-23T00:50:14;101142.63;;;26.42;48.14
20630;BME280;17386;43.846;25.950;2022-07-23T00:52:40;101140.44;;;26.46;47.32
20630;BME280;17386;43.846;25.950;2022-07-23T00:55:07;101143.31;;;26.44;46.62
20630;BME280;17386;43.846;25.950;2022-07-23T00:57:33;101144.88;;;26.37;46.47
20630;BME280;17386;43.846;25.950;2022-07-23T00:59:59;101142.03;;;26.29;46.67
20630;BME280;17386;43.846;25.950;2022-07-23T01:02:25;101146.19;;;26.24;46.22
20630;BME280;17386;43.846;25.950;2022-07-23T01:04:50;101134.72;;;26.20;46.18
20630;BME280;17386;43.846;25.950;2022-07-23T01:07:16;101137.59;;;26.18;45.77
20630;BME280;17386;43.846;25.950;2022-07-23T01:09:44;101137.16;;;26.13;45.45
20630;BME280;17386;43.846;25.950;2022-07-23T01:12:10;101136.63;;;26.10;44.98
20630;BME280;17386;43.846;25.950;2022-07-23T01:14:35;101133.31;;;26.06;44.68
20630;BME280;17386;43.846;25.950;2022-07-23T01:17:01;101134.63;;;26.02;44.22
20630;BME280;17386;43.846;25.950;2022-07-23T01:19:27;101132.19;;;25.99;44.02
20630;BME280;17386;43.846;25.950;2022-07-23T01:21:53;101137.19;;;25.94;43.97
20630;BME280;17386;43.846;25.950;2022-07-23T01:24:20;101133.31;;;25.87;43.95
20630;BME280;17386;43.846;25.950;2022-07-23T01:26:46;101137.38;;;25.83;43.91
20630;BME280;17386;43.846;25.950;2022-07-23T01:29:13;101134.34;;;25.76;43.77
20630;BME280;17386;43.846;25.950;2022-07-23T01:31:39;101132.91;;;25.72;43.91
20630;BME280;17386;43.846;25.950;2022-07-23T01:34:05;101133.31;;;25.68;43.87
20630;BME280;17386;43.846;25.950;2022-07-23T01:36:32;101128.47;;;25.61;44.03
20630;BME280;17386;43.846;25.950;2022-07-23T01:38:58;101136.19;;;25.56;44.34
20630;BME280;17386;43.846;25.950;2022-07-23T01:41:23;101132.75;;;25.54;44.80
20630;BME280;17386;43.846;25.950;2022-07-23T01:43:48;101140.16;;;25.52;44.92
20630;BME280;17386;43.846;25.950;2022-07-23T01:46:14;101138.44;;;25.51;44.95
20630;BME280;17386;43.846;25.950;2022-07-23T01:48:40;101138.31;;;25.53;44.98
20630;BME280;17386;43.846;25.950;2022-07-23T01:51:05;101131.03;;;25.53;45.54
20630;BME280;17386;43.846;25.950;2022-07-23T01:53:31;101137.34;;;25.54;45.73
20630;BME280;17386;43.846;25.950;2022-07-23T01:55:58;101142.19;;;25.50;46.10
20630;BME280;17386;43.846;25.950;2022-07-23T01:58:24;101135.72;;;25.51;45.96
20630;BME280;17386;43.846;25.950;2022-07-23T02:00:49;101134.03;;;25.41;45.72
20630;BME280;17386;43.846;25.950;2022-07-23T02:03:15;101133.16;;;25.40;45.36
20630;BME280;17386;43.846;25.950;2022-07-23T02:05:40;101140.47;;;25.40;45.64
20630;BME280;17386;43.846;25.950;2022-07-23T02:08:06;101135.03;;;25.40;45.79
20630;BME280;17386;43.846;25.950;2022-07-23T02:10:31;101144.03;;;25.40;45.45
20630;BME280;17386;43.846;25.950;2022-07-23T02:12:57;101143.31;;;25.38;46.08
20630;BME280;17386;43.846;25.950;2022-07-23T02:15:22;101132.16;;;25.41;46.63
20630;BME280;17386;43.846;25.950;2022-07-23T02:17:48;101131.31;;;25.41;49.19
20630;BME280;17386;43.846;25.950;2022-07-23T02:20:14;101128.44;;;25.42;48.79
20630;BME280;17386;43.846;25.950;2022-07-23T02:22:40;101124.72;;;25.43;49.40
20630;BME280;17386;43.846;25.950;2022-07-23T02:25:07;101128.44;;;25.42;49.59
20630;BME280;17386;43.846;25.950;2022-07-23T02:27:34;101122.00;;;25.43;48.99
20630;BME280;17386;43.846;25.950;2022-07-23T02:29:59;101123.13;;;25.41;47.83
20630;BME280;17386;43.846;25.950;2022-07-23T02:32:25;101119.56;;;25.40;47.19
20630;BME280;17386;43.846;25.950;2022-07-23T02:34:50;101122.69;;;25.35;46.86
20630;BME280;17386;43.846;25.950;2022-07-23T02:37:16;101119.53;;;25.30;46.36
20630;BME280;17386;43.846;25.950;2022-07-23T02:39:41;101131.72;;;25.26;46.26
20630;BME280;17386;43.846;25.950;2022-07-23T02:42:07;101134.69;;;25.23;46.00
20630;BME280;17386;43.846;25.950;2022-07-23T02:44:32;101124.97;;;25.21;46.21
20630;BME280;17386;43.846;25.950;2022-07-23T02:46:58;101137.84;;;25.19;46.31
20630;BME280;17386;43.846;25.950;2022-07-23T02:49:23;101138.97;;;25.16;46.13
20630;BME280;17386;43.846;25.950;2022-07-23T02:51:49;101137.97;;;25.17;46.50
20630;BME280;17386;43.846;25.950;2022-07-23T02:54:15;101134.81;;;25.12;46.39
20630;BME280;17386;43.846;25.950;2022-07-23T02:56:40;101144.09;;;25.09;46.39
20630;BME280;17386;43.846;25.950;2022-07-23T02:59:06;101135.59;;;25.03;46.37
20630;BME280;17386;43.846;25.950;2022-07-23T03:01:31;101136.63;;;25.02;46.54
20630;BME280;17386;43.846;25.950;2022-07-23T03:03:57;101130.47;;;25.00;46.65
20630;BME280;17386;43.846;25.950;2022-07-23T03:06:22;101133.19;;;25.00;46.27
20630;BME280;17386;43.846;25.950;2022-07-23T03:08:47;101128.31;;;25.03;46.21
20630;BME280;17386;43.846;25.950;2022-07-23T03:11:13;101146.47;;;24.93;46.22
20630;BME280;17386;43.846;25.950;2022-07-23T03:13:39;101164.94;;;24.69;46.55
20630;BME280;17386;43.846;25.950;2022-07-23T03:16:05;101160.25;;;24.71;46.15
20630;BME280;17386;43.846;25.950;2022-07-23T03:18:31;101165.13;;;24.77;45.81
20630;BME280;17386;43.846;25.950;2022-07-23T03:20:57;101161.44;;;24.88;45.38
20630;BME280;17386;43.846;25.950;2022-07-23T03:23:22;101183.06;;;24.89;44.94
20630;BME280;17386;43.846;25.950;2022-07-23T03:25:48;101171.78;;;24.94;45.19
20630;BME280;17386;43.846;25.950;2022-07-23T03:28:14;101168.50;;;25.00;44.99
20630;BME280;17386;43.846;25.950;2022-07-23T03:30:44;101174.44;;;25.05;44.87
20630;BME280;17386;43.846;25.950;2022-07-23T03:33:12;101177.59;;;25.10;44.79
20630;BME280;17386;43.846;25.950;2022-07-23T03:35:37;101187.91;;;25.16;44.43
20630;BME280;17386;43.846;25.950;2022-07-23T03:38:03;101183.94;;;25.20;44.49
20630;BME280;17386;43.846;25.950;2022-07-23T03:40:28;101181.91;;;25.22;44.40
20630;BME280;17386;43.846;25.950;2022-07-23T03:42:54;101181.63;;;25.25;44.43
20630;BME280;17386;43.846;25.950;2022-07-23T03:45:19;101183.63;;;25.23;44.56
20630;BME280;17386;43.846;25.950;2022-07-23T03:47:45;101179.34;;;25.21;44.79
20630;BME280;17386;43.846;25.950;2022-07-23T03:50:11;101194.50;;;25.23;45.07
20630;BME280;17386;43.846;25.950;2022-07-23T03:52:36;101196.22;;;25.24;46.53
20630;BME280;17386;43.846;25.950;2022-07-23T03:55:02;101187.97;;;25.26;47.66
20630;BME280;17386;43.846;25.950;2022-07-23T03:57:29;101196.22;;;25.24;50.49
20630;BME280;17386;43.846;25.950;2022-07-23T03:59:54;101186.22;;;25.25;51.66
20630;BME280;17386;43.846;25.950;2022-07-23T04:02:20;101197.66;;;25.19;52.38
20630;BME280;17386;43.846;25.950;2022-07-23T04:04:45;101197.66;;;25.19;53.34
20630;BME280;17386;43.846;25.950;2022-07-23T04:07:12;101206.53;;;25.21;54.24
20630;BME280;17386;43.846;25.950;2022-07-23T04:09:38;101212.84;;;25.21;54.77
20630;BME280;17386;43.846;25.950;2022-07-23T04:12:06;101208.41;;;25.20;54.20
20630;BME280;17386;43.846;25.950;2022-07-23T04:14:32;101209.41;;;25.19;52.94
20630;BME280;17386;43.846;25.950;2022-07-23T04:16:58;101219.28;;;25.20;50.63
20630;BME280;17386;43.846;25.950;2022-07-23T04:19:24;101216.13;;;25.25;49.00
20630;BME280;17386;43.846;25.950;2022-07-23T04:21:50;101216.69;;;25.19;49.69
20630;BME280;17386;43.846;25.950;2022-07-23T04:24:15;101225.13;;;25.16;51.14
20630;BME280;17386;43.846;25.950;2022-07-23T04:26:41;101215.94;;;25.17;52.03
20630;BME280;17386;43.846;25.950;2022-07-23T04:29:06;101214.84;;;25.19;52.07
20630;BME280;17386;43.846;25.950;2022-07-23T04:31:31;101210.25;;;25.20;52.38
20630;BME280;17386;43.846;25.950;2022-07-23T04:33:57;101212.13;;;25.19;52.81
20630;BME280;17386;43.846;25.950;2022-07-23T04:36:22;101210.81;;;25.23;52.36
20630;BME280;17386;43.846;25.950;2022-07-23T04:38:48;101219.44;;;25.28;52.28
20630;BME280;17386;43.846;25.950;2022-07-23T04:41:13;101220.69;;;25.24;52.20
20630;BME280;17386;43.846;25.950;2022-07-23T04:43:38;101225.41;;;25.22;49.75
20630;BME280;17386;43.846;25.950;2022-07-23T04:46:04;101214.56;;;25.32;47.94
20630;BME280;17386;43.846;25.950;2022-07-23T04:48:30;101225.50;;;25.42;47.11
20630;BME280;17386;43.846;25.950;2022-07-23T04:50:56;101230.38;;;25.48;46.77
20630;BME280;17386;43.846;25.950;2022-07-23T04:53:22;101238.09;;;25.52;46.20
20630;BME280;17386;43.846;25.950;2022-07-23T04:55:47;101240.16;;;25.60;45.75
20630;BME280;17386;43.846;25.950;2022-07-23T04:58:13;101237.84;;;25.65;45.92
20630;BME280;17386;43.846;25.950;2022-07-23T05:00:38;101241.16;;;25.69;45.24
20630;BME280;17386;43.846;25.950;2022-07-23T05:03:04;101248.66;;;25.76;45.27
20630;BME280;17386;43.846;25.950;2022-07-23T05:05:29;101248.66;;;25.86;45.31
20630;BME280;17386;43.846;25.950;2022-07-23T05:07:55;101247.09;;;25.93;45.45
20630;BME280;17386;43.846;25.950;2022-07-23T05:10:20;101242.66;;;26.02;45.15
20630;BME280;17386;43.846;25.950;2022-07-23T05:12:45;101248.41;;;26.08;44.77
20630;BME280;17386;43.846;25.950;2022-07-23T05:15:11;101260.28;;;26.17;45.06
20630;BME280;17386;43.846;25.950;2022-07-23T05:17:36;101261.84;;;26.19;44.39
20630;BME280;17386;43.846;25.950;2022-07-23T05:20:02;101255.13;;;26.24;44.63
20630;BME280;17386;43.846;25.950;2022-07-23T05:22:28;101261.88;;;26.29;45.08
20630;BME280;17386;43.846;25.950;2022-07-23T05:24:54;101261.31;;;26.35;44.98
20630;BME280;17386;43.846;25.950;2022-07-23T05:27:19;101274.22;;;26.43;45.02
20630;BME280;17386;43.846;25.950;2022-07-23T05:29:44;101271.78;;;26.50;45.15
20630;BME280;17386;43.846;25.950;2022-07-23T05:32:10;101273.78;;;26.48;43.47
20630;BME280;17386;43.846;25.950;2022-07-23T05:34:35;101267.03;;;26.52;43.64
20630;BME280;17386;43.846;25.950;2022-07-23T05:37:01;101265.47;;;26.59;43.30
20630;BME280;17386;43.846;25.950;2022-07-23T05:39:26;101264.88;;;26.65;42.93
20630;BME280;17386;43.846;25.950;2022-07-23T05:41:51;101270.28;;;26.75;42.50
20630;BME280;17386;43.846;25.950;2022-07-23T05:44:17;101272.16;;;26.74;41.14
20630;BME280;17386;43.846;25.950;2022-07-23T05:46:42;101276.31;;;26.68;41.17
20630;BME280;17386;43.846;25.950;2022-07-23T05:49:08;101279.19;;;26.67;41.18
20630;BME280;17386;43.846;25.950;2022-07-23T05:51:33;101284.50;;;26.68;41.51
20630;BME280;17386;43.846;25.950;2022-07-23T05:53:59;101275.31;;;26.79;41.27
20630;BME280;17386;43.846;25.950;2022-07-23T05:56:24;101272.81;;;26.95;41.43
20630;BME280;17386;43.846;25.950;2022-07-23T05:58:50;101272.53;;;27.08;42.44
20630;BME280;17386;43.846;25.950;2022-07-23T06:01:15;101272.63;;;27.16;41.38
20630;BME280;17386;43.846;25.950;2022-07-23T06:03:41;101277.22;;;27.25;40.87
20630;BME280;17386;43.846;25.950;2022-07-23T06:06:06;101280.47;;;27.29;40.23
20630;BME280;17386;43.846;25.950;2022-07-23T06:08:32;101271.25;;;27.40;40.44
20630;BME280;17386;43.846;25.950;2022-07-23T06:10:57;101275.50;;;27.52;40.15
20630;BME280;17386;43.846;25.950;2022-07-23T06:13:23;101273.22;;;27.47;42.13
20630;BME280;17386;43.846;25.950;2022-07-23T06:15:48;101275.84;;;27.39;42.02
20630;BME280;17386;43.846;25.950;2022-07-23T06:18:14;101276.63;;;27.32;41.93
20630;BME280;17386;43.846;25.950;2022-07-23T06:20:39;101285.06;;;27.38;41.60
20630;BME280;17386;43.846;25.950;2022-07-23T06:23:05;101285.28;;;27.45;41.81
20630;BME280;17386;43.846;25.950;2022-07-23T06:25:31;101291.31;;;27.48;41.22
20630;BME280;17386;43.846;25.950;2022-07-23T06:27:56;101286.97;;;27.56;41.88
20630;BME280;17386;43.846;25.950;2022-07-23T06:30:22;101280.03;;;27.61;42.39
20630;BME280;17386;43.846;25.950;2022-07-23T06:32:48;101285.31;;;27.72;41.84
20630;BME280;17386;43.846;25.950;2022-07-23T06:35:14;101292.59;;;27.82;41.69
20630;BME280;17386;43.846;25.950;2022-07-23T06:37:40;101293.22;;;27.75;42.37
20630;BME280;17386;43.846;25.950;2022-07-23T06:40:06;101291.44;;;27.84;42.13
20630;BME280;17386;43.846;25.950;2022-07-23T06:42:31;101287.63;;;27.95;42.16
20630;BME280;17386;43.846;25.950;2022-07-23T06:44:57;101282.69;;;27.80;41.00
20630;BME280;17386;43.846;25.950;2022-07-23T06:47:23;101278.47;;;27.86;41.08
20630;BME280;17386;43.846;25.950;2022-07-23T06:49:48;101282.78;;;27.89;39.88
20630;BME280;17386;43.846;25.950;2022-07-23T06:52:14;101283.34;;;28.10;39.87
20630;BME280;17386;43.846;25.950;2022-07-23T06:54:39;101275.00;;;28.29;39.77
20630;BME280;17386;43.846;25.950;2022-07-23T06:57:05;101281.31;;;28.48;39.43
20630;BME280;17386;43.846;25.950;2022-07-23T06:59:30;101290.81;;;28.61;38.78
20630;BME280;17386;43.846;25.950;2022-07-23T07:01:55;101289.97;;;28.61;39.44
20630;BME280;17386;43.846;25.950;2022-07-23T07:04:22;101283.13;;;28.57;39.06
20630;BME280;17386;43.846;25.950;2022-07-23T07:06:48;101286.03;;;28.55;39.32
20630;BME280;17386;43.846;25.950;2022-07-23T07:09:13;101289.72;;;28.72;39.50
20630;BME280;17386;43.846;25.950;2022-07-23T07:11:39;101287.22;;;28.79;39.46
20630;BME280;17386;43.846;25.950;2022-07-23T07:14:04;101282.53;;;28.71;39.07
20630;BME280;17386;43.846;25.950;2022-07-23T07:16:30;101287.94;;;28.89;38.88
20630;BME280;17386;43.846;25.950;2022-07-23T07:18:55;101285.03;;;29.08;37.73
20630;BME280;17386;43.846;25.950;2022-07-23T07:21:20;101283.22;;;29.17;37.47
20630;BME280;17386;43.846;25.950;2022-07-23T07:23:46;101291.66;;;29.32;36.04
20630;BME280;17386;43.846;25.950;2022-07-23T07:26:11;101281.41;;;29.34;35.61
20630;BME280;17386;43.846;25.950;2022-07-23T07:28:37;101281.19;;;29.53;35.77
20630;BME280;17386;43.846;25.950;2022-07-23T07:31:03;101272.16;;;29.69;36.01
20630;BME280;17386;43.846;25.950;2022-07-23T07:33:28;101273.09;;;29.86;36.51
20630;BME280;17386;43.846;25.950;2022-07-23T07:35:54;101266.78;;;30.02;36.48
20630;BME280;17386;43.846;25.950;2022-07-23T07:38:19;101269.22;;;30.13;36.41
20630;BME280;17386;43.846;25.950;2022-07-23T07:40:45;101283.97;;;30.28;36.44
20630;BME280;17386;43.846;25.950;2022-07-23T07:43:10;101278.50;;;30.36;35.25
20630;BME280;17386;43.846;25.950;2022-07-23T07:45:36;101258.78;;;30.49;35.45
20630;BME280;17386;43.846;25.950;2022-07-23T07:48:01;101268.38;;;30.61;35.73
20630;BME280;17386;43.846;25.950;2022-07-23T07:50:27;101255.00;;;30.74;35.79
20630;BME280;17386;43.846;25.950;2022-07-23T07:52:53;101257.38;;;30.86;36.19
20630;BME280;17386;43.846;25.950;2022-07-23T07:55:18;101254.47;;;30.95;36.46
20630;BME280;17386;43.846;25.950;2022-07-23T07:57:44;101260.09;;;30.94;36.90
20630;BME280;17386;43.846;25.950;2022-07-23T08:00:10;101251.84;;;31.10;36.65
20630;BME280;17386;43.846;25.950;2022-07-23T08:02:44;101253.19;;;31.14;36.92
20630;BME280;17386;43.846;25.950;2022-07-23T08:05:10;101251.63;;;31.28;36.96
20630;BME280;17386;43.846;25.950;2022-07-23T08:07:36;101259.53;;;31.31;36.28
20630;BME280;17386;43.846;25.950;2022-07-23T08:10:02;101257.22;;;31.51;35.82
20630;BME280;17386;43.846;25.950;2022-07-23T08:12:28;101243.06;;;31.62;35.32
20630;BME280;17386;43.846;25.950;2022-07-23T08:14:53;101243.38;;;31.67;34.93
20630;BME280;17386;43.846;25.950;2022-07-23T08:17:19;101242.34;;;31.68;34.33
20630;BME280;17386;43.846;25.950;2022-07-23T08:19:44;101247.78;;;31.76;33.82
20630;BME280;17386;43.846;25.950;2022-07-23T08:22:10;101241.25;;;31.77;33.11
20630;BME280;17386;43.846;25.950;2022-07-23T08:24:35;101239.56;;;31.84;33.47
20630;BME280;17386;43.846;25.950;2022-07-23T08:27:00;101237.03;;;31.98;33.93
20630;BME280;17386;43.846;25.950;2022-07-23T08:29:26;101232.63;;;32.11;33.77
20630;BME280;17386;43.846;25.950;2022-07-23T08:31:51;101224.06;;;32.29;33.68
20630;BME280;17386;43.846;25.950;2022-07-23T08:34:17;101216.50;;;32.54;33.24
20630;BME280;17386;43.846;25.950;2022-07-23T08:36:42;101216.81;;;32.74;33.05
20630;BME280;17386;43.846;25.950;2022-07-23T08:39:10;101220.66;;;32.88;32.80
20630;BME280;17386;43.846;25.950;2022-07-23T08:41:35;101223.84;;;33.06;32.53
20630;BME280;17386;43.846;25.950;2022-07-23T08:44:07;101215.69;;;33.13;31.94
20630;BME280;17386;43.846;25.950;2022-07-23T08:46:32;101211.81;;;33.22;32.12
20630;BME280;17386;43.846;25.950;2022-07-23T08:48:58;101222.72;;;33.30;32.30
20630;BME280;17386;43.846;25.950;2022-07-23T08:51:26;101223.16;;;33.48;31.55
20630;BME280;17386;43.846;25.950;2022-07-23T08:53:52;101211.50;;;33.46;31.07
20630;BME280;17386;43.846;25.950;2022-07-23T08:56:18;101217.50;;;33.50;30.98
20630;BME280;17386;43.846;25.950;2022-07-23T08:58:43;101218.50;;;33.64;31.26
20630;BME280;17386;43.846;25.950;2022-07-23T09:01:08;101212.72;;;33.80;30.14
20630;BME280;17386;43.846;25.950;2022-07-23T09:03:36;101208.31;;;34.00;29.37
20630;BME280;17386;43.846;25.950;2022-07-23T09:06:02;101206.59;;;34.21;28.43
20630;BME280;17386;43.846;25.950;2022-07-23T09:08:38;101208.09;;;34.45;27.82
20630;BME280;17386;43.846;25.950;2022-07-23T09:11:05;101211.16;;;34.57;27.39
20630;BME280;17386;43.846;25.950;2022-07-23T09:13:36;101209.81;;;34.74;26.88
20630;BME280;17386;43.846;25.950;2022-07-23T09:18:55;101206.00;;;35.09;26.57
20630;BME280;17386;43.846;25.950;2022-07-23T09:21:28;101210.50;;;35.17;27.05
20630;BME280;17386;43.846;25.950;2022-07-23T09:24:00;101203.13;;;35.31;26.70
20630;BME280;17386;43.846;25.950;2022-07-23T09:26:45;101201.31;;;35.51;26.08
20630;BME280;17386;43.846;25.950;2022-07-23T09:29:18;101202.41;;;35.57;25.42
20630;BME280;17386;43.846;25.950;2022-07-23T09:31:51;101206.91;;;35.65;26.33
20630;BME280;17386;43.846;25.950;2022-07-23T09:34:25;101202.00;;;35.67;26.78
20630;BME280;17386;43.846;25.950;2022-07-23T09:36:56;101200.91;;;35.61;26.51
20630;BME280;17386;43.846;25.950;2022-07-23T09:41:52;101197.31;;;35.67;26.62
20630;BME280;17386;43.846;25.950;2022-07-23T09:44:19;101196.50;;;35.80;26.13
20630;BME280;17386;43.846;25.950;2022-07-23T09:46:47;101194.03;;;35.98;25.73
20630;BME280;17386;43.846;25.950;2022-07-23T09:49:21;101186.38;;;36.13;25.71
20630;BME280;17386;43.846;25.950;2022-07-23T09:51:59;101193.19;;;36.31;25.54
20630;BME280;17386;43.846;25.950;2022-07-23T09:54:32;101183.63;;;36.47;25.06
20630;BME280;17386;43.846;25.950;2022-07-23T09:57:02;101179.31;;;36.70;24.88
20630;BME280;17386;43.846;25.950;2022-07-23T09:59:32;101175.69;;;36.90;24.66
20630;BME280;17386;43.846;25.950;2022-07-23T10:01:59;101175.91;;;36.95;24.01
20630;BME280;17386;43.846;25.950;2022-07-23T10:04:27;101173.31;;;37.07;24.05
20630;BME280;17386;43.846;25.950;2022-07-23T10:06:54;101169.59;;;37.19;23.65
20630;BME280;17386;43.846;25.950;2022-07-23T10:09:29;101167.53;;;37.53;24.07
20630;BME280;17386;43.846;25.950;2022-07-23T10:11:57;101159.47;;;37.90;23.11
20630;BME280;17386;43.846;25.950;2022-07-23T10:14:27;101162.72;;;38.37;22.75
20630;BME280;17386;43.846;25.950;2022-07-23T10:16:56;101150.47;;;38.88;22.39
20630;BME280;17386;43.846;25.950;2022-07-23T10:19:22;101159.84;;;39.42;21.46
20630;BME280;17386;43.846;25.950;2022-07-23T10:21:51;101145.16;;;39.95;21.24
20630;BME280;17386;43.846;25.950;2022-07-23T10:30:18;101147.03;;;41.35;19.60
20630;BME280;17386;43.846;25.950;2022-07-23T10:35:28;101135.13;;;42.52;18.53
20630;BME280;17386;43.846;25.950;2022-07-23T10:38:06;101134.28;;;42.90;18.23
20630;BME280;17386;43.846;25.950;2022-07-23T10:40:32;101131.31;;;43.24;18.13
20630;BME280;17386;43.846;25.950;2022-07-23T10:42:59;101140.16;;;43.10;17.99
20630;BME280;17386;43.846;25.950;2022-07-23T10:45:35;101133.81;;;43.42;17.52
20630;BME280;17386;43.846;25.950;2022-07-23T10:50:41;101132.47;;;44.09;17.15
20630;BME280;17386;43.846;25.950;2022-07-23T10:53:17;101131.72;;;44.18;16.86
20630;BME280;17386;43.846;25.950;2022-07-23T10:58:08;101121.69;;;44.22;16.55
20630;BME280;17386;43.846;25.950;2022-07-23T11:00:35;101117.63;;;44.45;16.42
20630;BME280;17386;43.846;25.950;2022-07-23T11:03:04;101111.63;;;44.69;16.25
20630;BME280;17386;43.846;25.950;2022-07-23T11:05:39;101107.19;;;44.88;16.13
20630;BME280;17386;43.846;25.950;2022-07-23T11:10:46;101105.66;;;45.23;15.40
20630;BME280;17386;43.846;25.950;2022-07-23T11:32:07;101092.28;;;44.72;14.60
20630;BME280;17386;43.846;25.950;2022-07-23T11:37:08;101081.00;;;43.46;15.78
20630;BME280;17386;43.846;25.950;2022-07-23T11:39:34;101088.38;;;42.64;16.44
20630;BME280;17386;43.846;25.950;2022-07-23T11:42:01;101077.94;;;41.70;16.78
20630;BME280;17386;43.846;25.950;2022-07-23T11:44:32;101075.56;;;41.45;17.79
20630;BME280;17386;43.846;25.950;2022-07-23T11:47:03;101077.44;;;41.11;18.01
20630;BME280;17386;43.846;25.950;2022-07-23T11:49:29;101077.84;;;40.80;18.72
20630;BME280;17386;43.846;25.950;2022-07-23T11:52:13;101077.31;;;40.31;18.97
20630;BME280;17386;43.846;25.950;2022-07-23T11:54:52;101079.13;;;40.02;19.58
20630;BME280;17386;43.846;25.950;2022-07-23T11:57:19;101072.22;;;39.81;19.45
20630;BME280;17386;43.846;25.950;2022-07-23T11:59:52;101074.00;;;39.33;20.00
20630;BME280;17386;43.846;25.950;2022-07-23T12:02:19;101060.38;;;39.13;20.09
20630;BME280;17386;43.846;25.950;2022-07-23T12:04:48;101064.81;;;38.84;20.47
20630;BME280;17386;43.846;25.950;2022-07-23T12:07:34;101064.34;;;38.88;20.71
20630;BME280;17386;43.846;25.950;2022-07-23T12:10:24;101068.75;;;38.77;20.65
20630;BME280;17386;43.846;25.950;2022-07-23T12:15:26;101062.34;;;38.76;20.73
20630;BME280;17386;43.846;25.950;2022-07-23T12:17:53;101050.78;;;38.61;20.86
20630;BME280;17386;43.846;25.950;2022-07-23T12:20:24;101047.16;;;38.61;20.76
20630;BME280;17386;43.846;25.950;2022-07-23T12:22:56;101051.25;;;38.58;20.88
20630;BME280;17386;43.846;25.950;2022-07-23T12:25:24;101047.16;;;38.61;20.83
20630;BME280;17386;43.846;25.950;2022-07-23T12:28:11;101037.97;;;38.42;20.74
20630;BME280;17386;43.846;25.950;2022-07-23T12:33:09;101041.84;;;38.59;20.56
20630;BME280;17386;43.846;25.950;2022-07-23T12:38:09;101048.16;;;38.48;20.57
20630;BME280;17386;43.846;25.950;2022-07-23T12:40:47;101039.00;;;38.47;20.39
20630;BME280;17386;43.846;25.950;2022-07-23T12:43:25;101037.91;;;38.30;21.19
20630;BME280;17386;43.846;25.950;2022-07-23T12:48:36;101033.06;;;38.44;21.37
20630;BME280;17386;43.846;25.950;2022-07-23T12:51:03;101031.75;;;38.46;21.26
20630;BME280;17386;43.846;25.950;2022-07-23T12:53:40;101029.53;;;38.37;21.13
20630;BME280;17386;43.846;25.950;2022-07-23T12:56:12;101028.03;;;38.34;21.21
20630;BME280;17386;43.846;25.950;2022-07-23T12:58:58;101022.66;;;38.39;21.23
20630;BME280;17386;43.846;25.950;2022-07-23T13:01:24;101016.88;;;38.41;21.04
20630;BME280;17386;43.846;25.950;2022-07-23T13:04:06;101014.69;;;38.43;21.08
20630;BME280;17386;43.846;25.950;2022-07-23T13:06:41;101010.22;;;38.42;21.11
20630;BME280;17386;43.846;25.950;2022-07-23T13:09:08;101017.63;;;38.29;20.97
20630;BME280;17386;43.846;25.950;2022-07-23T13:11:34;101011.06;;;38.24;21.13
20630;BME280;17386;43.846;25.950;2022-07-23T13:14:00;101004.22;;;38.26;21.21
20630;BME280;17386;43.846;25.950;2022-07-23T13:16:27;100995.25;;;38.24;21.45
20630;BME280;17386;43.846;25.950;2022-07-23T13:18:53;101004.91;;;38.40;21.00
20630;BME280;17386;43.846;25.950;2022-07-23T13:21:18;100996.66;;;38.52;20.62
20630;BME280;17386;43.846;25.950;2022-07-23T13:23:44;100998.59;;;38.51;20.63
20630;BME280;17386;43.846;25.950;2022-07-23T13:26:09;100993.97;;;38.45;20.74
20630;BME280;17386;43.846;25.950;2022-07-23T13:28:35;100992.72;;;38.41;20.70
20630;BME280;17386;43.846;25.950;2022-07-23T13:31:00;100996.59;;;38.40;20.81
20630;BME280;17386;43.846;25.950;2022-07-23T13:33:26;100998.34;;;38.35;20.24